sensor_id;sensor_type;location;lat;lon;timestamp;P1;durP1;ratioP1;P2;durP2;ratioP2
15776;SDS011;7989;51.198;6.676;2024-03-17T00:02:22;10.00;;;6.72;;
15776;SDS011;7989;51.198;6.676;2024-03-17T00:04:49;8.25;;;6.15;;
15776;SDS011;7989;51.198;6.676;2024-03-17T00:07:16;7.57;;;6.03;;
15776;SDS011;7989;51.198;6.676;2024-03-17T00:09:43;7.75;;;5.78;;
15776;SDS011;7989;51.198;6.676;2024-03-17T00:12:10;8.10;;;5.75;;
15776;SDS011;7989;51.198;6.676;2024-03-17T00:14:37;8.43;;;6.90;;
15776;SDS011;7989;51.198;6.676;2024-03-17T00:17:04;9.00;;;7.43;;
15776;SDS011;7989;51.198;6.676;2024-03-17T00:19:31;9.02;;;6.32;;
15776;SDS011;7989;51.198;6.676;2024-03-17T00:21:57;11.02;;;5.90;;
15776;SDS011;7989;51.198;6.676;2024-03-17T00:24:25;7.57;;;5.53;;
15776;SDS011;7989;51.198;6.676;2024-03-17T00:26:59;7.15;;;5.88;;
15776;SDS011;7989;51.198;6.676;2024-03-17T00:29:24;8.80;;;5.20;;
15776;SDS011;7989;51.198;6.676;2024-03-17T00:31:51;6.38;;;5.63;;
15776;SDS011;7989;51.198;6.676;2024-03-17T00:34:17;7.93;;;4.93;;
15776;SDS011;7989;51.198;6.676;2024-03-17T00:36:44;7.57;;;5.18;;
15776;SDS011;7989;51.198;6.676;2024-03-17T00:39:10;7.85;;;4.88;;
15776;SDS011;7989;51.198;6.676;2024-03-17T00:41:38;6.15;;;5.53;;
15776;SDS011;7989;51.198;6.676;2024-03-17T00:44:04;10.93;;;6.15;;
15776;SDS011;7989;51.198;6.676;2024-03-17T00:46:31;8.55;;;5.43;;
15776;SDS011;7989;51.198;6.676;2024-03-17T00:48:58;7.75;;;4.95;;
15776;SDS011;7989;51.198;6.676;2024-03-17T00:51:25;7.00;;;5.18;;
15776;SDS011;7989;51.198;6.676;2024-03-17T00:53:51;7.03;;;5.35;;
15776;SDS011;7989;51.198;6.676;2024-03-17T00:56:18;7.03;;;5.43;;
15776;SDS011;7989;51.198;6.676;2024-03-17T00:58:45;7.28;;;4.93;;
15776;SDS011;7989;51.198;6.676;2024-03-17T01:01:12;8.32;;;5.03;;
15776;SDS011;7989;51.198;6.676;2024-03-17T01:03:37;8.57;;;5.68;;
15776;SDS011;7989;51.198;6.676;2024-03-17T01:06:04;7.53;;;5.90;;
15776;SDS011;7989;51.198;6.676;2024-03-17T01:08:30;8.63;;;5.65;;
15776;SDS011;7989;51.198;6.676;2024-03-17T01:10:57;10.63;;;5.78;;
15776;SDS011;7989;51.198;6.676;2024-03-17T01:13:29;8.55;;;5.57;;
15776;SDS011;7989;51.198;6.676;2024-03-17T01:16:00;8.50;;;5.65;;
15776;SDS011;7989;51.198;6.676;2024-03-17T01:18:26;9.98;;;6.25;;
15776;SDS011;7989;51.198;6.676;2024-03-17T01:20:53;7.88;;;5.80;;
15776;SDS011;7989;51.198;6.676;2024-03-17T01:23:18;8.77;;;5.85;;
15776;SDS011;7989;51.198;6.676;2024-03-17T01:25:45;7.72;;;6.15;;
15776;SDS011;7989;51.198;6.676;2024-03-17T01:28:11;9.07;;;6.00;;
15776;SDS011;7989;51.198;6.676;2024-03-17T01:30:38;10.48;;;6.10;;
15776;SDS011;7989;51.198;6.676;2024-03-17T01:33:06;6.10;;;5.38;;
15776;SDS011;7989;51.198;6.676;2024-03-17T01:35:34;9.68;;;6.57;;
15776;SDS011;7989;51.198;6.676;2024-03-17T01:38:00;6.97;;;5.63;;
15776;SDS011;7989;51.198;6.676;2024-03-17T01:40:27;7.15;;;5.80;;
15776;SDS011;7989;51.198;6.676;2024-03-17T01:42:53;10.55;;;6.80;;
15776;SDS011;7989;51.198;6.676;2024-03-17T01:45:23;7.63;;;5.60;;
15776;SDS011;7989;51.198;6.676;2024-03-17T01:47:51;8.68;;;5.70;;
15776;SDS011;7989;51.198;6.676;2024-03-17T01:50:20;8.75;;;6.13;;
15776;SDS011;7989;51.198;6.676;2024-03-17T01:52:50;8.18;;;6.13;;
15776;SDS011;7989;51.198;6.676;2024-03-17T01:55:19;9.85;;;6.97;;
15776;SDS011;7989;51.198;6.676;2024-03-17T01:57:46;8.57;;;6.30;;
15776;SDS011;7989;51.198;6.676;2024-03-17T02:00:13;7.20;;;6.18;;
15776;SDS011;7989;51.198;6.676;2024-03-17T02:02:39;8.63;;;6.43;;
15776;SDS011;7989;51.198;6.676;2024-03-17T02:05:06;9.55;;;6.35;;
15776;SDS011;7989;51.198;6.676;2024-03-17T02:07:34;8.23;;;6.60;;
15776;SDS011;7989;51.198;6.676;2024-03-17T02:10:00;10.07;;;6.05;;
15776;SDS011;7989;51.198;6.676;2024-03-17T02:12:28;11.13;;;7.10;;
15776;SDS011;7989;51.198;6.676;2024-03-17T02:14:56;7.63;;;6.85;;
15776;SDS011;7989;51.198;6.676;2024-03-17T02:17:22;7.22;;;6.25;;
15776;SDS011;7989;51.198;6.676;2024-03-17T02:19:50;8.45;;;6.22;;
15776;SDS011;7989;51.198;6.676;2024-03-17T02:22:18;9.20;;;7.15;;
15776;SDS011;7989;51.198;6.676;2024-03-17T02:24:45;8.85;;;6.22;;
15776;SDS011;7989;51.198;6.676;2024-03-17T02:27:11;8.82;;;6.78;;
15776;SDS011;7989;51.198;6.676;2024-03-17T02:29:38;9.27;;;7.45;;
15776;SDS011;7989;51.198;6.676;2024-03-17T02:32:04;9.95;;;7.28;;
15776;SDS011;7989;51.198;6.676;2024-03-17T02:34:32;10.45;;;6.82;;
15776;SDS011;7989;51.198;6.676;2024-03-17T02:36:58;8.35;;;7.30;;
15776;SDS011;7989;51.198;6.676;2024-03-17T02:39:26;10.90;;;7.25;;
15776;SDS011;7989;51.198;6.676;2024-03-17T02:42:02;9.32;;;6.50;;
15776;SDS011;7989;51.198;6.676;2024-03-17T02:44:29;12.52;;;6.63;;
15776;SDS011;7989;51.198;6.676;2024-03-17T02:46:57;11.13;;;7.30;;
15776;SDS011;7989;51.198;6.676;2024-03-17T02:49:24;9.48;;;6.78;;
15776;SDS011;7989;51.198;6.676;2024-03-17T02:51:52;11.00;;;7.07;;
15776;SDS011;7989;51.198;6.676;2024-03-17T02:54:19;10.52;;;6.90;;
15776;SDS011;7989;51.198;6.676;2024-03-17T02:56:47;8.25;;;7.25;;
15776;SDS011;7989;51.198;6.676;2024-03-17T02:59:14;8.20;;;7.20;;
15776;SDS011;7989;51.198;6.676;2024-03-17T03:01:40;8.38;;;7.10;;
15776;SDS011;7989;51.198;6.676;2024-03-17T03:04:07;10.10;;;8.18;;
15776;SDS011;7989;51.198;6.676;2024-03-17T03:06:35;13.80;;;7.57;;
15776;SDS011;7989;51.198;6.676;2024-03-17T03:09:01;8.18;;;6.72;;
15776;SDS011;7989;51.198;6.676;2024-03-17T03:11:30;10.73;;;7.72;;
15776;SDS011;7989;51.198;6.676;2024-03-17T03:13:58;9.35;;;7.22;;
15776;SDS011;7989;51.198;6.676;2024-03-17T03:16:28;9.27;;;7.40;;
15776;SDS011;7989;51.198;6.676;2024-03-17T03:18:55;9.52;;;7.47;;
15776;SDS011;7989;51.198;6.676;2024-03-17T03:21:21;12.15;;;8.10;;
15776;SDS011;7989;51.198;6.676;2024-03-17T03:23:48;9.05;;;7.05;;
15776;SDS011;7989;51.198;6.676;2024-03-17T03:26:15;9.50;;;7.30;;
15776;SDS011;7989;51.198;6.676;2024-03-17T03:28:42;8.82;;;7.15;;
15776;SDS011;7989;51.198;6.676;2024-03-17T03:31:11;12.27;;;7.72;;
15776;SDS011;7989;51.198;6.676;2024-03-17T03:33:39;9.63;;;8.48;;
15776;SDS011;7989;51.198;6.676;2024-03-17T03:36:07;11.00;;;8.75;;
15776;SDS011;7989;51.198;6.676;2024-03-17T03:38:35;9.45;;;7.75;;
15776;SDS011;7989;51.198;6.676;2024-03-17T03:41:05;9.07;;;7.75;;
15776;SDS011;7989;51.198;6.676;2024-03-17T03:43:33;13.07;;;9.00;;
15776;SDS011;7989;51.198;6.676;2024-03-17T03:46:00;11.43;;;8.32;;
15776;SDS011;7989;51.198;6.676;2024-03-17T03:48:29;11.48;;;7.53;;
15776;SDS011;7989;51.198;6.676;2024-03-17T03:50:56;10.10;;;7.70;;
15776;SDS011;7989;51.198;6.676;2024-03-17T03:53:23;11.07;;;8.18;;
15776;SDS011;7989;51.198;6.676;2024-03-17T03:55:51;9.75;;;7.82;;
15776;SDS011;7989;51.198;6.676;2024-03-17T03:58:18;10.95;;;8.57;;
15776;SDS011;7989;51.198;6.676;2024-03-17T04:00:46;9.68;;;8.25;;
15776;SDS011;7989;51.198;6.676;2024-03-17T04:03:13;17.48;;;15.57;;
15776;SDS011;7989;51.198;6.676;2024-03-17T04:05:41;12.60;;;9.00;;
15776;SDS011;7989;51.198;6.676;2024-03-17T04:08:08;9.90;;;8.23;;
15776;SDS011;7989;51.198;6.676;2024-03-17T04:10:34;12.55;;;9.95;;
15776;SDS011;7989;51.198;6.676;2024-03-17T04:13:01;12.77;;;9.73;;
15776;SDS011;7989;51.198;6.676;2024-03-17T04:15:29;12.20;;;9.65;;
15776;SDS011;7989;51.198;6.676;2024-03-17T04:17:55;20.05;;;15.15;;
15776;SDS011;7989;51.198;6.676;2024-03-17T04:20:22;10.70;;;9.30;;
15776;SDS011;7989;51.198;6.676;2024-03-17T04:22:50;9.98;;;7.57;;
15776;SDS011;7989;51.198;6.676;2024-03-17T04:25:17;10.98;;;8.60;;
15776;SDS011;7989;51.198;6.676;2024-03-17T04:27:44;8.13;;;7.28;;
15776;SDS011;7989;51.198;6.676;2024-03-17T04:30:11;9.73;;;7.63;;
15776;SDS011;7989;51.198;6.676;2024-03-17T04:32:39;8.13;;;7.32;;
15776;SDS011;7989;51.198;6.676;2024-03-17T04:35:06;9.50;;;7.38;;
15776;SDS011;7989;51.198;6.676;2024-03-17T04:37:33;9.73;;;7.57;;
15776;SDS011;7989;51.198;6.676;2024-03-17T04:40:06;10.63;;;7.82;;
15776;SDS011;7989;51.198;6.676;2024-03-17T04:42:35;8.90;;;8.00;;
15776;SDS011;7989;51.198;6.676;2024-03-17T04:45:04;9.63;;;8.05;;
15776;SDS011;7989;51.198;6.676;2024-03-17T04:47:34;10.20;;;8.75;;
15776;SDS011;7989;51.198;6.676;2024-03-17T04:50:01;9.18;;;8.25;;
15776;SDS011;7989;51.198;6.676;2024-03-17T04:52:29;8.40;;;7.60;;
15776;SDS011;7989;51.198;6.676;2024-03-17T04:54:56;9.20;;;7.75;;
15776;SDS011;7989;51.198;6.676;2024-03-17T04:57:24;8.90;;;7.95;;
15776;SDS011;7989;51.198;6.676;2024-03-17T04:59:51;8.55;;;7.65;;
15776;SDS011;7989;51.198;6.676;2024-03-17T05:02:17;12.38;;;7.63;;
15776;SDS011;7989;51.198;6.676;2024-03-17T05:04:44;10.20;;;7.65;;
15776;SDS011;7989;51.198;6.676;2024-03-17T05:07:11;10.63;;;7.90;;
15776;SDS011;7989;51.198;6.676;2024-03-17T05:09:38;7.43;;;6.70;;
15776;SDS011;7989;51.198;6.676;2024-03-17T05:12:05;8.65;;;7.65;;
15776;SDS011;7989;51.198;6.676;2024-03-17T05:14:34;9.27;;;8.38;;
15776;SDS011;7989;51.198;6.676;2024-03-17T05:17:01;10.77;;;9.07;;
15776;SDS011;7989;51.198;6.676;2024-03-17T05:19:28;7.93;;;6.78;;
15776;SDS011;7989;51.198;6.676;2024-03-17T05:21:54;9.10;;;7.70;;
15776;SDS011;7989;51.198;6.676;2024-03-17T05:24:21;10.18;;;8.30;;
15776;SDS011;7989;51.198;6.676;2024-03-17T05:26:48;10.00;;;7.78;;
15776;SDS011;7989;51.198;6.676;2024-03-17T05:29:15;11.27;;;8.00;;
15776;SDS011;7989;51.198;6.676;2024-03-17T05:31:43;10.52;;;7.75;;
15776;SDS011;7989;51.198;6.676;2024-03-17T05:34:10;9.20;;;8.13;;
15776;SDS011;7989;51.198;6.676;2024-03-17T05:36:36;9.77;;;8.82;;
15776;SDS011;7989;51.198;6.676;2024-03-17T05:39:03;8.55;;;7.72;;
15776;SDS011;7989;51.198;6.676;2024-03-17T05:41:30;9.50;;;8.35;;
15776;SDS011;7989;51.198;6.676;2024-03-17T05:43:57;9.48;;;8.45;;
15776;SDS011;7989;51.198;6.676;2024-03-17T05:46:24;10.50;;;8.32;;
15776;SDS011;7989;51.198;6.676;2024-03-17T05:48:53;9.00;;;7.75;;
15776;SDS011;7989;51.198;6.676;2024-03-17T05:51:20;9.35;;;7.75;;
15776;SDS011;7989;51.198;6.676;2024-03-17T05:53:50;9.70;;;8.70;;
15776;SDS011;7989;51.198;6.676;2024-03-17T05:56:17;12.20;;;10.90;;
15776;SDS011;7989;51.198;6.676;2024-03-17T05:58:44;9.02;;;8.13;;
15776;SDS011;7989;51.198;6.676;2024-03-17T06:01:12;9.07;;;7.07;;
15776;SDS011;7989;51.198;6.676;2024-03-17T06:03:38;8.25;;;7.45;;
15776;SDS011;7989;51.198;6.676;2024-03-17T06:06:08;9.20;;;8.40;;
15776;SDS011;7989;51.198;6.676;2024-03-17T06:08:36;8.10;;;7.47;;
15776;SDS011;7989;51.198;6.676;2024-03-17T06:11:04;8.40;;;7.47;;
15776;SDS011;7989;51.198;6.676;2024-03-17T06:13:31;9.18;;;8.27;;
15776;SDS011;7989;51.198;6.676;2024-03-17T06:15:58;7.90;;;7.13;;
15776;SDS011;7989;51.198;6.676;2024-03-17T06:18:26;8.27;;;7.50;;
15776;SDS011;7989;51.198;6.676;2024-03-17T06:20:54;10.93;;;8.30;;
15776;SDS011;7989;51.198;6.676;2024-03-17T06:23:24;8.13;;;7.28;;
15776;SDS011;7989;51.198;6.676;2024-03-17T06:25:52;9.13;;;7.53;;
15776;SDS011;7989;51.198;6.676;2024-03-17T06:28:20;9.27;;;7.65;;
15776;SDS011;7989;51.198;6.676;2024-03-17T06:30:54;7.43;;;6.72;;
15776;SDS011;7989;51.198;6.676;2024-03-17T06:33:22;10.43;;;7.72;;
15776;SDS011;7989;51.198;6.676;2024-03-17T06:35:49;7.72;;;7.03;;
15776;SDS011;7989;51.198;6.676;2024-03-17T06:38:16;9.57;;;7.28;;
15776;SDS011;7989;51.198;6.676;2024-03-17T06:40:48;10.48;;;6.80;;
15776;SDS011;7989;51.198;6.676;2024-03-17T06:43:16;9.88;;;8.02;;
15776;SDS011;7989;51.198;6.676;2024-03-17T06:45:43;13.20;;;11.50;;
15776;SDS011;7989;51.198;6.676;2024-03-17T06:48:10;7.63;;;6.78;;
15776;SDS011;7989;51.198;6.676;2024-03-17T06:50:37;8.25;;;6.97;;
15776;SDS011;7989;51.198;6.676;2024-03-17T06:53:06;8.15;;;6.25;;
15776;SDS011;7989;51.198;6.676;2024-03-17T06:55:35;7.32;;;6.65;;
15776;SDS011;7989;51.198;6.676;2024-03-17T06:58:03;8.05;;;6.95;;
15776;SDS011;7989;51.198;6.676;2024-03-17T07:00:31;7.85;;;6.47;;
15776;SDS011;7989;51.198;6.676;2024-03-17T07:02:58;9.40;;;8.48;;
15776;SDS011;7989;51.198;6.676;2024-03-17T07:05:25;7.72;;;6.93;;
15776;SDS011;7989;51.198;6.676;2024-03-17T07:07:52;7.45;;;5.97;;
15776;SDS011;7989;51.198;6.676;2024-03-17T07:10:18;6.90;;;6.30;;
15776;SDS011;7989;51.198;6.676;2024-03-17T07:12:45;6.45;;;5.68;;
15776;SDS011;7989;51.198;6.676;2024-03-17T07:15:13;9.68;;;5.88;;
15776;SDS011;7989;51.198;6.676;2024-03-17T07:17:40;5.88;;;5.10;;
15776;SDS011;7989;51.198;6.676;2024-03-17T07:20:07;6.55;;;5.90;;
15776;SDS011;7989;51.198;6.676;2024-03-17T07:22:38;5.38;;;4.88;;
15776;SDS011;7989;51.198;6.676;2024-03-17T07:25:05;6.15;;;4.57;;
15776;SDS011;7989;51.198;6.676;2024-03-17T07:27:32;8.73;;;7.13;;
15776;SDS011;7989;51.198;6.676;2024-03-17T07:29:59;6.43;;;5.82;;
15776;SDS011;7989;51.198;6.676;2024-03-17T07:32:27;5.78;;;5.28;;
15776;SDS011;7989;51.198;6.676;2024-03-17T07:34:54;6.53;;;4.97;;
15776;SDS011;7989;51.198;6.676;2024-03-17T07:37:20;6.50;;;5.63;;
15776;SDS011;7989;51.198;6.676;2024-03-17T07:39:47;4.45;;;4.10;;
15776;SDS011;7989;51.198;6.676;2024-03-17T07:42:15;6.72;;;6.15;;
15776;SDS011;7989;51.198;6.676;2024-03-17T07:44:43;5.72;;;5.05;;
15776;SDS011;7989;51.198;6.676;2024-03-17T07:47:10;4.75;;;4.25;;
15776;SDS011;7989;51.198;6.676;2024-03-17T07:49:39;6.43;;;5.63;;
15776;SDS011;7989;51.198;6.676;2024-03-17T07:52:05;10.43;;;7.57;;
15776;SDS011;7989;51.198;6.676;2024-03-17T07:54:32;12.40;;;11.20;;
15776;SDS011;7989;51.198;6.676;2024-03-17T07:57:00;5.72;;;4.32;;
15776;SDS011;7989;51.198;6.676;2024-03-17T07:59:27;5.50;;;4.93;;
15776;SDS011;7989;51.198;6.676;2024-03-17T08:01:54;3.97;;;3.35;;
15776;SDS011;7989;51.198;6.676;2024-03-17T08:04:22;5.40;;;4.43;;
15776;SDS011;7989;51.198;6.676;2024-03-17T08:06:50;4.40;;;3.58;;
15776;SDS011;7989;51.198;6.676;2024-03-17T08:09:17;3.63;;;3.33;;
15776;SDS011;7989;51.198;6.676;2024-03-17T08:11:44;4.03;;;3.38;;
15776;SDS011;7989;51.198;6.676;2024-03-17T08:14:12;4.97;;;4.15;;
15776;SDS011;7989;51.198;6.676;2024-03-17T08:16:40;6.10;;;4.72;;
15776;SDS011;7989;51.198;6.676;2024-03-17T08:19:06;4.53;;;4.05;;
15776;SDS011;7989;51.198;6.676;2024-03-17T08:21:33;5.10;;;4.55;;
15776;SDS011;7989;51.198;6.676;2024-03-17T08:24:02;5.03;;;4.60;;
15776;SDS011;7989;51.198;6.676;2024-03-17T08:26:29;4.15;;;3.80;;
15776;SDS011;7989;51.198;6.676;2024-03-17T08:28:56;5.32;;;4.20;;
15776;SDS011;7989;51.198;6.676;2024-03-17T08:31:23;3.88;;;3.45;;
15776;SDS011;7989;51.198;6.676;2024-03-17T08:33:50;4.45;;;3.40;;
15776;SDS011;7989;51.198;6.676;2024-03-17T08:36:17;3.95;;;3.17;;
15776;SDS011;7989;51.198;6.676;2024-03-17T08:38:46;4.30;;;3.90;;
15776;SDS011;7989;51.198;6.676;2024-03-17T08:41:15;5.85;;;4.15;;
15776;SDS011;7989;51.198;6.676;2024-03-17T08:43:42;4.07;;;3.67;;
15776;SDS011;7989;51.198;6.676;2024-03-17T08:46:09;8.55;;;3.90;;
15776;SDS011;7989;51.198;6.676;2024-03-17T08:48:38;4.05;;;3.65;;
15776;SDS011;7989;51.198;6.676;2024-03-17T08:51:06;4.07;;;3.67;;
15776;SDS011;7989;51.198;6.676;2024-03-17T08:53:34;4.90;;;3.60;;
15776;SDS011;7989;51.198;6.676;2024-03-17T08:56:03;6.07;;;3.90;;
15776;SDS011;7989;51.198;6.676;2024-03-17T08:58:32;5.88;;;3.85;;
15776;SDS011;7989;51.198;6.676;2024-03-17T09:01:02;4.55;;;3.53;;
15776;SDS011;7989;51.198;6.676;2024-03-17T09:03:31;5.95;;;3.95;;
15776;SDS011;7989;51.198;6.676;2024-03-17T09:05:58;4.68;;;4.05;;
15776;SDS011;7989;51.198;6.676;2024-03-17T09:08:27;4.85;;;3.47;;
15776;SDS011;7989;51.198;6.676;2024-03-17T09:10:54;3.85;;;3.55;;
15776;SDS011;7989;51.198;6.676;2024-03-17T09:13:22;3.80;;;3.50;;
15776;SDS011;7989;51.198;6.676;2024-03-17T09:15:53;3.85;;;2.88;;
15776;SDS011;7989;51.198;6.676;2024-03-17T09:18:21;7.38;;;4.13;;
15776;SDS011;7989;51.198;6.676;2024-03-17T09:20:55;4.75;;;3.47;;
15776;SDS011;7989;51.198;6.676;2024-03-17T09:23:23;4.57;;;3.90;;
15776;SDS011;7989;51.198;6.676;2024-03-17T09:25:55;4.63;;;4.13;;
15776;SDS011;7989;51.198;6.676;2024-03-17T09:28:22;6.80;;;4.43;;
15776;SDS011;7989;51.198;6.676;2024-03-17T09:30:49;4.90;;;3.92;;
15776;SDS011;7989;51.198;6.676;2024-03-17T09:33:18;5.20;;;4.80;;
15776;SDS011;7989;51.198;6.676;2024-03-17T09:35:52;6.70;;;4.63;;
15776;SDS011;7989;51.198;6.676;2024-03-17T09:38:19;5.28;;;4.78;;
15776;SDS011;7989;51.198;6.676;2024-03-17T09:40:47;6.18;;;5.03;;
15776;SDS011;7989;51.198;6.676;2024-03-17T09:43:17;5.90;;;4.88;;
15776;SDS011;7989;51.198;6.676;2024-03-17T09:45:45;5.18;;;4.68;;
15776;SDS011;7989;51.198;6.676;2024-03-17T09:48:13;6.45;;;5.05;;
15776;SDS011;7989;51.198;6.676;2024-03-17T09:50:42;4.70;;;4.30;;
15776;SDS011;7989;51.198;6.676;2024-03-17T09:53:15;5.07;;;4.68;;
15776;SDS011;7989;51.198;6.676;2024-03-17T09:55:44;6.68;;;5.82;;
15776;SDS011;7989;51.198;6.676;2024-03-17T09:58:15;6.03;;;5.10;;
15776;SDS011;7989;51.198;6.676;2024-03-17T10:00:43;5.90;;;5.32;;
15776;SDS011;7989;51.198;6.676;2024-03-17T10:03:12;6.22;;;5.25;;
15776;SDS011;7989;51.198;6.676;2024-03-17T10:06:02;6.15;;;4.85;;
15776;SDS011;7989;51.198;6.676;2024-03-17T10:08:30;5.72;;;5.22;;
15776;SDS011;7989;51.198;6.676;2024-03-17T10:10:59;5.85;;;5.32;;
15776;SDS011;7989;51.198;6.676;2024-03-17T10:13:26;5.45;;;5.00;;
15776;SDS011;7989;51.198;6.676;2024-03-17T10:15:52;6.97;;;5.05;;
15776;SDS011;7989;51.198;6.676;2024-03-17T10:18:20;5.97;;;5.40;;
15776;SDS011;7989;51.198;6.676;2024-03-17T10:20:48;5.68;;;4.95;;
15776;SDS011;7989;51.198;6.676;2024-03-17T10:23:22;6.25;;;5.45;;
15776;SDS011;7989;51.198;6.676;2024-03-17T10:25:53;5.78;;;5.28;;
15776;SDS011;7989;51.198;6.676;2024-03-17T10:28:20;4.88;;;4.40;;
15776;SDS011;7989;51.198;6.676;2024-03-17T10:30:56;4.53;;;4.13;;
15776;SDS011;7989;51.198;6.676;2024-03-17T10:33:24;5.15;;;4.65;;
15776;SDS011;7989;51.198;6.676;2024-03-17T10:35:57;5.78;;;4.68;;
15776;SDS011;7989;51.198;6.676;2024-03-17T10:38:29;4.45;;;4.15;;
15776;SDS011;7989;51.198;6.676;2024-03-17T10:40:55;5.45;;;4.53;;
15776;SDS011;7989;51.198;6.676;2024-03-17T10:43:23;6.07;;;4.75;;
15776;SDS011;7989;51.198;6.676;2024-03-17T10:45:53;4.60;;;3.83;;
15776;SDS011;7989;51.198;6.676;2024-03-17T10:48:22;5.15;;;4.60;;
15776;SDS011;7989;51.198;6.676;2024-03-17T10:50:58;4.40;;;3.95;;
15776;SDS011;7989;51.198;6.676;2024-03-17T10:53:29;4.82;;;4.32;;
15776;SDS011;7989;51.198;6.676;2024-03-17T10:56:00;5.50;;;4.45;;
15776;SDS011;7989;51.198;6.676;2024-03-17T10:58:33;6.63;;;4.65;;
15776;SDS011;7989;51.198;6.676;2024-03-17T11:01:03;5.30;;;4.10;;
15776;SDS011;7989;51.198;6.676;2024-03-17T11:03:31;5.15;;;4.18;;
15776;SDS011;7989;51.198;6.676;2024-03-17T11:05:59;5.30;;;4.40;;
15776;SDS011;7989;51.198;6.676;2024-03-17T11:08:30;4.60;;;4.20;;
15776;SDS011;7989;51.198;6.676;2024-03-17T11:10:58;4.90;;;4.13;;
15776;SDS011;7989;51.198;6.676;2024-03-17T11:13:26;4.63;;;4.22;;
15776;SDS011;7989;51.198;6.676;2024-03-17T11:15:53;5.90;;;4.50;;
15776;SDS011;7989;51.198;6.676;2024-03-17T11:18:35;4.65;;;4.25;;
15776;SDS011;7989;51.198;6.676;2024-03-17T11:21:04;24.30;;;16.67;;
15776;SDS011;7989;51.198;6.676;2024-03-17T11:24:01;4.97;;;4.40;;
15776;SDS011;7989;51.198;6.676;2024-03-17T11:26:29;5.60;;;4.80;;
15776;SDS011;7989;51.198;6.676;2024-03-17T11:28:58;4.45;;;4.05;;
15776;SDS011;7989;51.198;6.676;2024-03-17T11:31:36;4.28;;;3.80;;
15776;SDS011;7989;51.198;6.676;2024-03-17T11:34:07;4.40;;;4.00;;
15776;SDS011;7989;51.198;6.676;2024-03-17T11:37:09;5.40;;;4.28;;
15776;SDS011;7989;51.198;6.676;2024-03-17T11:40:22;6.05;;;4.65;;
15776;SDS011;7989;51.198;6.676;2024-03-17T11:42:59;8.10;;;4.55;;
15776;SDS011;7989;51.198;6.676;2024-03-17T11:45:26;5.38;;;4.32;;
15776;SDS011;7989;51.198;6.676;2024-03-17T11:47:53;7.35;;;4.35;;
15776;SDS011;7989;51.198;6.676;2024-03-17T11:50:18;4.65;;;4.20;;
15776;SDS011;7989;51.198;6.676;2024-03-17T11:52:45;4.90;;;4.40;;
15776;SDS011;7989;51.198;6.676;2024-03-17T11:55:17;4.72;;;3.90;;
15776;SDS011;7989;51.198;6.676;2024-03-17T11:57:45;5.25;;;4.28;;
15776;SDS011;7989;51.198;6.676;2024-03-17T12:00:20;4.57;;;4.20;;
15776;SDS011;7989;51.198;6.676;2024-03-17T12:02:48;4.50;;;4.10;;
15776;SDS011;7989;51.198;6.676;2024-03-17T12:05:14;4.22;;;3.78;;
15776;SDS011;7989;51.198;6.676;2024-03-17T12:07:41;12.18;;;11.10;;
15776;SDS011;7989;51.198;6.676;2024-03-17T12:10:08;5.57;;;4.32;;
15776;SDS011;7989;51.198;6.676;2024-03-17T12:12:39;4.97;;;3.90;;
15776;SDS011;7989;51.198;6.676;2024-03-17T12:15:13;4.25;;;3.85;;
15776;SDS011;7989;51.198;6.676;2024-03-17T12:17:42;5.10;;;3.85;;
15776;SDS011;7989;51.198;6.676;2024-03-17T12:20:15;4.03;;;3.63;;
15776;SDS011;7989;51.198;6.676;2024-03-17T12:22:43;3.80;;;3.50;;
15776;SDS011;7989;51.198;6.676;2024-03-17T12:25:09;5.90;;;4.28;;
15776;SDS011;7989;51.198;6.676;2024-03-17T12:27:45;5.03;;;3.88;;
15776;SDS011;7989;51.198;6.676;2024-03-17T12:30:13;5.43;;;4.57;;
15776;SDS011;7989;51.198;6.676;2024-03-17T12:32:42;8.43;;;6.38;;
15776;SDS011;7989;51.198;6.676;2024-03-17T12:35:12;5.30;;;4.50;;
15776;SDS011;7989;51.198;6.676;2024-03-17T12:37:42;4.65;;;4.15;;
15776;SDS011;7989;51.198;6.676;2024-03-17T12:40:15;5.45;;;4.45;;
15776;SDS011;7989;51.198;6.676;2024-03-17T12:42:48;5.25;;;4.53;;
15776;SDS011;7989;51.198;6.676;2024-03-17T12:45:18;4.65;;;3.90;;
15776;SDS011;7989;51.198;6.676;2024-03-17T12:47:46;4.68;;;3.78;;
15776;SDS011;7989;51.198;6.676;2024-03-17T12:50:13;4.28;;;3.88;;
15776;SDS011;7989;51.198;6.676;2024-03-17T12:52:43;6.15;;;4.28;;
15776;SDS011;7989;51.198;6.676;2024-03-17T12:55:18;5.70;;;4.38;;
15776;SDS011;7989;51.198;6.676;2024-03-17T12:58:07;5.20;;;4.25;;
15776;SDS011;7989;51.198;6.676;2024-03-17T13:00:59;4.68;;;4.28;;
15776;SDS011;7989;51.198;6.676;2024-03-17T13:03:27;4.00;;;3.60;;
15776;SDS011;7989;51.198;6.676;2024-03-17T13:05:56;4.30;;;3.90;;
15776;SDS011;7989;51.198;6.676;2024-03-17T13:08:23;4.95;;;3.83;;
15776;SDS011;7989;51.198;6.676;2024-03-17T13:10:50;6.28;;;3.75;;
15776;SDS011;7989;51.198;6.676;2024-03-17T13:13:18;4.68;;;3.97;;
15776;SDS011;7989;51.198;6.676;2024-03-17T13:15:45;4.38;;;3.65;;
15776;SDS011;7989;51.198;6.676;2024-03-17T13:18:15;5.30;;;3.97;;
15776;SDS011;7989;51.198;6.676;2024-03-17T13:20:46;5.22;;;3.85;;
15776;SDS011;7989;51.198;6.676;2024-03-17T13:23:14;5.03;;;3.25;;
15776;SDS011;7989;51.198;6.676;2024-03-17T13:25:41;6.22;;;5.05;;
15776;SDS011;7989;51.198;6.676;2024-03-17T13:28:10;4.85;;;4.35;;
15776;SDS011;7989;51.198;6.676;2024-03-17T13:30:39;7.68;;;4.28;;
15776;SDS011;7989;51.198;6.676;2024-03-17T13:33:07;5.00;;;4.45;;
15776;SDS011;7989;51.198;6.676;2024-03-17T13:35:34;5.45;;;4.38;;
15776;SDS011;7989;51.198;6.676;2024-03-17T13:38:04;4.93;;;4.20;;
15776;SDS011;7989;51.198;6.676;2024-03-17T13:40:32;4.72;;;4.32;;
15776;SDS011;7989;51.198;6.676;2024-03-17T13:42:59;6.50;;;4.80;;
15776;SDS011;7989;51.198;6.676;2024-03-17T13:45:27;4.43;;;4.03;;
15776;SDS011;7989;51.198;6.676;2024-03-17T13:47:57;4.50;;;4.10;;
15776;SDS011;7989;51.198;6.676;2024-03-17T13:50:26;5.18;;;4.00;;
15776;SDS011;7989;51.198;6.676;2024-03-17T13:52:53;10.52;;;4.72;;
15776;SDS011;7989;51.198;6.676;2024-03-17T13:55:20;4.53;;;3.85;;
15776;SDS011;7989;51.198;6.676;2024-03-17T13:57:50;4.78;;;4.35;;
15776;SDS011;7989;51.198;6.676;2024-03-17T14:00:19;5.03;;;4.00;;
15776;SDS011;7989;51.198;6.676;2024-03-17T14:02:47;5.55;;;4.22;;
15776;SDS011;7989;51.198;6.676;2024-03-17T14:05:16;4.20;;;3.55;;
15776;SDS011;7989;51.198;6.676;2024-03-17T14:07:44;4.15;;;3.70;;
15776;SDS011;7989;51.198;6.676;2024-03-17T14:10:12;7.22;;;4.10;;
15776;SDS011;7989;51.198;6.676;2024-03-17T14:12:40;4.85;;;3.90;;
15776;SDS011;7989;51.198;6.676;2024-03-17T14:15:08;3.67;;;3.35;;
15776;SDS011;7989;51.198;6.676;2024-03-17T14:17:36;4.68;;;4.22;;
15776;SDS011;7989;51.198;6.676;2024-03-17T14:20:03;6.63;;;4.32;;
15776;SDS011;7989;51.198;6.676;2024-03-17T14:22:35;4.05;;;3.33;;
15776;SDS011;7989;51.198;6.676;2024-03-17T14:25:03;5.15;;;3.60;;
15776;SDS011;7989;51.198;6.676;2024-03-17T14:27:30;4.45;;;3.17;;
15776;SDS011;7989;51.198;6.676;2024-03-17T14:29:57;3.83;;;3.33;;
15776;SDS011;7989;51.198;6.676;2024-03-17T14:32:24;7.10;;;3.22;;
15776;SDS011;7989;51.198;6.676;2024-03-17T14:34:51;4.82;;;3.08;;
15776;SDS011;7989;51.198;6.676;2024-03-17T14:37:18;3.85;;;3.20;;
15776;SDS011;7989;51.198;6.676;2024-03-17T14:39:46;3.90;;;3.50;;
15776;SDS011;7989;51.198;6.676;2024-03-17T14:42:12;4.88;;;3.20;;
15776;SDS011;7989;51.198;6.676;2024-03-17T14:44:39;5.40;;;3.40;;
15776;SDS011;7989;51.198;6.676;2024-03-17T14:47:06;10.23;;;3.25;;
15776;SDS011;7989;51.198;6.676;2024-03-17T14:49:33;4.32;;;3.60;;
15776;SDS011;7989;51.198;6.676;2024-03-17T14:52:00;6.25;;;3.40;;
15776;SDS011;7989;51.198;6.676;2024-03-17T14:54:27;4.63;;;3.35;;
15776;SDS011;7989;51.198;6.676;2024-03-17T14:56:55;8.82;;;3.95;;
15776;SDS011;7989;51.198;6.676;2024-03-17T14:59:22;4.47;;;3.67;;
15776;SDS011;7989;51.198;6.676;2024-03-17T15:01:49;3.95;;;3.63;;
15776;SDS011;7989;51.198;6.676;2024-03-17T15:04:15;4.10;;;3.55;;
15776;SDS011;7989;51.198;6.676;2024-03-17T15:06:43;3.50;;;3.20;;